createdAt,value
2017-11-11T00:00:36.952Z,3.50
2017-11-11T00:03:04.515Z,3.50
2017-11-11T00:05:32.123Z,3.50
2017-11-11T00:07:59.695Z,3.40
2017-11-11T00:10:27.218Z,3.30
2017-11-11T00:12:55.868Z,3.40
2017-11-11T00:15:23.328Z,3.40
2017-11-11T00:17:50.780Z,3.40
2017-11-11T00:20:18.304Z,3.30
2017-11-11T00:22:47.309Z,3.30
2017-11-11T00:25:14.867Z,3.30
2017-11-11T00:27:42.350Z,3.40
2017-11-11T00:30:09.841Z,3.40
2017-11-11T00:32:37.309Z,3.50
2017-11-11T00:35:04.773Z,3.50
2017-11-11T00:37:32.238Z,3.40
2017-11-11T00:40:00.550Z,3.50
2017-11-11T00:42:28.909Z,3.50
2017-11-11T00:44:56.445Z,3.50
2017-11-11T00:47:23.930Z,3.50
2017-11-11T00:49:51.398Z,3.60
2017-11-11T00:52:18.882Z,3.50
2017-11-11T00:54:47.130Z,3.50
2017-11-11T00:57:14.613Z,3.50
2017-11-11T00:59:42.866Z,3.60
2017-11-11T01:02:10.339Z,3.50
2017-11-11T01:04:39.123Z,3.50
2017-11-11T01:07:06.582Z,3.50
2017-11-11T01:09:34.570Z,3.50
2017-11-11T01:12:03.091Z,3.50
2017-11-11T01:14:30.812Z,3.50
2017-11-11T01:16:58.295Z,3.60
2017-11-11T01:19:25.770Z,3.60
2017-11-11T01:21:53.266Z,3.60
2017-11-11T01:24:20.741Z,3.70
2017-11-11T01:26:48.237Z,3.70
2017-11-11T01:29:15.724Z,3.70
2017-11-11T01:31:43.195Z,3.70
2017-11-11T01:34:11.436Z,3.80
2017-11-11T01:36:38.889Z,3.80
2017-11-11T01:39:06.799Z,3.80
2017-11-11T01:41:34.263Z,3.80
2017-11-11T01:44:01.709Z,3.80
2017-11-11T01:46:29.967Z,3.60
2017-11-11T01:48:57.441Z,3.70
2017-11-11T01:51:24.982Z,3.70
2017-11-11T01:53:52.447Z,3.70
2017-11-11T01:56:19.915Z,3.80
2017-11-11T01:58:47.381Z,3.80
2017-11-11T02:01:15.628Z,3.70
2017-11-11T02:03:43.109Z,3.70
2017-11-11T02:06:10.567Z,3.80
2017-11-11T02:08:38.818Z,3.70
2017-11-11T02:11:06.280Z,3.70
2017-11-11T02:13:33.781Z,3.70
2017-11-11T02:16:01.252Z,3.70
2017-11-11T02:18:28.734Z,3.70
2017-11-11T02:20:56.221Z,3.70
2017-11-11T02:23:23.705Z,3.70
2017-11-11T02:25:51.176Z,3.80
2017-11-11T02:28:18.652Z,3.80
2017-11-11T02:30:46.569Z,3.80
2017-11-11T02:33:14.825Z,3.90
2017-11-11T02:35:42.283Z,3.80
2017-11-11T02:38:09.769Z,4.00
2017-11-11T02:40:37.236Z,4.00
2017-11-11T02:43:04.717Z,4.10
2017-11-11T02:45:32.153Z,4.10
2017-11-11T02:47:59.636Z,4.10
2017-11-11T02:50:27.115Z,4.20
2017-11-11T02:52:54.563Z,4.10
2017-11-11T02:55:22.057Z,4.10
2017-11-11T02:57:49.558Z,4.20
2017-11-11T03:00:17.021Z,4.10
2017-11-11T03:02:44.505Z,4.10
2017-11-11T03:05:13.209Z,4.10
2017-11-11T03:07:40.676Z,4.20
2017-11-11T03:10:08.137Z,4.20
2017-11-11T03:12:35.617Z,4.20
2017-11-11T03:15:03.159Z,4.20
2017-11-11T03:17:30.623Z,4.20
2017-11-11T03:19:58.079Z,4.30
2017-11-11T03:22:25.927Z,4.40
2017-11-11T03:24:53.366Z,4.40
2017-11-11T03:27:21.487Z,4.40
2017-11-11T03:29:48.954Z,4.40
2017-11-11T03:32:16.428Z,4.40
2017-11-11T03:34:43.900Z,4.40
2017-11-11T03:37:11.354Z,4.40
2017-11-11T03:39:39.238Z,4.50
2017-11-11T03:42:06.712Z,4.40
2017-11-11T03:44:34.181Z,4.40
2017-11-11T03:47:02.413Z,4.50
2017-11-11T03:49:29.881Z,4.50
2017-11-11T03:51:57.358Z,4.50
2017-11-11T03:54:24.810Z,4.50
2017-11-11T03:56:52.265Z,4.50
2017-11-11T03:59:19.742Z,4.60
2017-11-11T04:01:47.952Z,4.50
2017-11-11T04:04:15.434Z,4.50
2017-11-11T04:06:42.890Z,4.50
2017-11-11T04:09:10.362Z,4.60
2017-11-11T04:11:37.830Z,4.60
2017-11-11T04:14:05.324Z,4.60
2017-11-11T04:16:32.798Z,4.60
2017-11-11T04:19:00.230Z,4.50
2017-11-11T04:21:27.713Z,4.40
2017-11-11T04:23:55.167Z,4.40
2017-11-11T04:26:22.617Z,4.40
2017-11-11T04:28:50.069Z,4.40
2017-11-11T04:31:18.014Z,4.40
2017-11-11T04:33:45.565Z,4.50
2017-11-11T04:36:13.794Z,4.50
2017-11-11T04:38:41.278Z,4.60
2017-11-11T04:41:08.745Z,4.40
2017-11-11T04:43:36.211Z,4.50
2017-11-11T04:46:04.453Z,4.60
2017-11-11T04:48:31.911Z,4.50
2017-11-11T04:50:59.369Z,4.50
2017-11-11T04:53:26.830Z,4.50
2017-11-11T04:55:54.305Z,4.50
2017-11-11T04:58:22.533Z,4.60
2017-11-11T05:00:50.002Z,4.50
2017-11-11T05:03:17.451Z,4.60
2017-11-11T05:05:45.248Z,4.60
2017-11-11T05:08:12.732Z,4.70
2017-11-11T05:10:40.176Z,4.70
2017-11-11T05:13:07.660Z,4.60
2017-11-11T05:15:35.107Z,4.60
2017-11-11T05:18:02.574Z,4.80
2017-11-11T05:20:30.036Z,4.70
2017-11-11T05:22:57.755Z,4.70
2017-11-11T05:25:25.222Z,4.70
2017-11-11T05:27:52.669Z,4.80
2017-11-11T05:30:20.132Z,4.80
2017-11-11T05:32:47.566Z,4.80
2017-11-11T05:35:15.043Z,4.80
2017-11-11T05:37:42.502Z,5.00
2017-11-11T05:40:09.970Z,5.00
2017-11-11T05:42:37.418Z,5.00
2017-11-11T05:45:04.892Z,5.10
2017-11-11T05:47:32.373Z,5.00
2017-11-11T05:49:59.860Z,5.20
2017-11-11T05:52:27.329Z,5.10
2017-11-11T05:54:54.790Z,5.10
2017-11-11T05:57:22.241Z,5.10
2017-11-11T05:59:49.715Z,5.00
2017-11-11T06:02:17.176Z,5.00
2017-11-11T06:04:44.648Z,5.10
2017-11-11T06:07:12.099Z,5.10
2017-11-11T06:09:39.570Z,5.30
2017-11-11T06:12:07.036Z,5.00
2017-11-11T06:14:34.509Z,4.90
2017-11-11T06:17:01.996Z,4.90
2017-11-11T06:19:29.455Z,5.10
2017-11-11T06:21:57.242Z,4.90
2017-11-11T06:24:24.748Z,4.80
2017-11-11T06:26:52.267Z,4.90
2017-11-11T06:29:19.710Z,4.90
2017-11-11T06:31:47.190Z,5.00
2017-11-11T06:34:14.678Z,5.00
2017-11-11T06:36:42.151Z,4.90
2017-11-11T06:39:09.712Z,5.10
2017-11-11T06:41:37.186Z,1.10
2017-11-11T06:44:04.667Z,5.10
2017-11-11T06:46:32.905Z,5.00
2017-11-11T06:49:00.373Z,5.00
2017-11-11T06:51:27.864Z,5.00
2017-11-11T06:53:56.097Z,4.90
2017-11-11T06:56:23.560Z,4.90
2017-11-11T06:58:51.023Z,4.80
2017-11-11T07:01:18.493Z,4.90
2017-11-11T07:03:45.961Z,4.90
2017-11-11T07:06:14.201Z,5.00
2017-11-11T07:08:41.703Z,4.90
2017-11-11T07:11:09.945Z,5.00
2017-11-11T07:13:37.416Z,5.00
2017-11-11T07:16:04.877Z,5.00
2017-11-11T07:18:33.143Z,5.00
2017-11-11T07:21:01.989Z,4.90
2017-11-11T07:23:29.661Z,4.90
2017-11-11T07:25:59.584Z,5.10
2017-11-11T07:28:27.500Z,5.10
2017-11-11T07:30:55.057Z,5.20
2017-11-11T07:33:23.293Z,5.00
2017-11-11T07:35:51.071Z,5.00
2017-11-11T07:38:18.542Z,5.00
2017-11-11T07:40:46.771Z,4.90
2017-11-11T07:43:14.331Z,4.90
2017-11-11T07:45:41.803Z,5.00
2017-11-11T07:48:09.318Z,4.90
2017-11-11T07:50:36.780Z,4.90
2017-11-11T07:53:04.247Z,4.80
2017-11-11T07:55:31.725Z,4.80
2017-11-11T07:57:59.955Z,4.90
2017-11-11T08:00:28.200Z,5.10
2017-11-11T08:02:55.715Z,5.00
2017-11-11T08:05:23.190Z,5.10
2017-11-11T08:07:50.703Z,5.20
2017-11-11T08:10:19.232Z,5.00
2017-11-11T08:12:46.723Z,5.00
2017-11-11T08:15:14.206Z,5.00
2017-11-11T08:17:41.678Z,5.10
2017-11-11T08:20:09.149Z,5.10
2017-11-11T08:22:36.633Z,5.00
2017-11-11T08:25:04.171Z,5.00
2017-11-11T08:27:31.897Z,5.00
2017-11-11T08:29:59.385Z,4.90
2017-11-11T08:32:26.936Z,4.90
2017-11-11T08:34:54.411Z,5.00
2017-11-11T08:37:21.859Z,5.00
2017-11-11T08:39:49.365Z,4.90
2017-11-11T08:42:16.829Z,5.00
2017-11-11T08:44:45.324Z,5.10
2017-11-11T08:47:12.813Z,5.00
2017-11-11T08:49:40.359Z,5.10
2017-11-11T08:52:08.538Z,5.10
2017-11-11T08:54:36.041Z,5.20
2017-11-11T08:57:03.527Z,5.20
2017-11-11T08:59:31.753Z,5.20
2017-11-11T09:01:59.253Z,5.20
2017-11-11T09:04:26.741Z,5.20
2017-11-11T09:06:54.259Z,5.30
2017-11-11T09:09:22.566Z,5.30
2017-11-11T09:11:50.049Z,5.40
2017-11-11T09:14:18.288Z,5.50
2017-11-11T09:16:45.785Z,5.50
2017-11-11T09:19:14.049Z,5.60
2017-11-11T09:21:41.549Z,5.50
2017-11-11T09:24:09.033Z,5.60
2017-11-11T09:26:37.011Z,5.50
2017-11-11T09:29:04.509Z,5.50
2017-11-11T09:31:31.997Z,5.50
2017-11-11T09:33:59.464Z,5.60
2017-11-11T09:36:27.709Z,5.50
2017-11-11T09:38:55.184Z,5.50
2017-11-11T09:41:22.696Z,5.50
2017-11-11T09:43:50.202Z,5.50
2017-11-11T09:46:17.683Z,5.60
2017-11-11T09:48:46.720Z,5.90
2017-11-11T09:51:14.193Z,5.80
2017-11-11T09:53:42.939Z,5.80
2017-11-11T09:56:10.416Z,5.70
2017-11-11T09:58:37.912Z,5.50
2017-11-11T10:01:05.418Z,5.60
2017-11-11T10:03:32.902Z,5.70
2017-11-11T10:06:00.373Z,5.60
2017-11-11T10:08:27.855Z,5.60
2017-11-11T10:10:56.121Z,5.70
2017-11-11T10:13:23.593Z,5.70
2017-11-11T10:15:55.313Z,5.80
2017-11-11T10:18:22.787Z,5.80
2017-11-11T10:20:50.254Z,6.00
2017-11-11T10:23:17.732Z,5.80
2017-11-11T10:25:45.200Z,5.70
2017-11-11T10:28:12.662Z,5.80
2017-11-11T10:30:40.157Z,6.10
2017-11-11T10:33:07.609Z,6.20
2017-11-11T10:35:35.090Z,6.40
2017-11-11T10:38:02.542Z,6.30
2017-11-11T10:40:30.003Z,6.20
2017-11-11T10:42:57.490Z,6.40
2017-11-11T10:45:25.726Z,6.10
2017-11-11T10:47:54.368Z,6.10
2017-11-11T10:50:21.849Z,6.20
2017-11-11T10:52:49.332Z,6.10
2017-11-11T10:55:16.808Z,6.10
2017-11-11T10:57:44.310Z,6.10
2017-11-11T11:00:11.967Z,6.00
2017-11-11T11:02:39.713Z,6.00
2017-11-11T11:05:07.194Z,6.00
2017-11-11T11:07:34.670Z,6.10
2017-11-11T11:10:02.147Z,6.00
2017-11-11T11:12:29.667Z,6.00
2017-11-11T11:14:57.193Z,6.10
2017-11-11T11:17:25.445Z,6.10
2017-11-11T11:19:53.293Z,6.10
2017-11-11T11:22:20.837Z,6.20
2017-11-11T11:24:48.324Z,6.10
2017-11-11T11:27:15.933Z,6.10
2017-11-11T11:29:43.450Z,6.20
2017-11-11T11:32:11.041Z,6.20
2017-11-11T11:34:45.619Z,6.30
2017-11-11T11:37:13.405Z,6.30
2017-11-11T11:39:41.090Z,6.30
2017-11-11T11:42:08.602Z,6.30
2017-11-11T11:44:36.179Z,6.30
2017-11-11T11:47:03.653Z,6.40
2017-11-11T11:49:31.530Z,6.40
2017-11-11T11:51:59.075Z,6.50
2017-11-11T11:54:27.343Z,6.50
2017-11-11T11:56:55.719Z,6.50
2017-11-11T11:59:23.220Z,6.60
2017-11-11T12:01:50.708Z,6.60
2017-11-11T12:04:18.199Z,6.80
2017-11-11T12:06:46.801Z,6.80
2017-11-11T12:09:14.342Z,6.80
2017-11-11T12:11:42.634Z,6.70
2017-11-11T12:14:11.424Z,6.70
2017-11-11T12:16:38.882Z,6.90
2017-11-11T12:19:06.735Z,7.00
2017-11-11T12:21:34.983Z,7.00
2017-11-11T12:24:02.447Z,7.00
2017-11-11T12:26:31.695Z,6.90
2017-11-11T12:28:59.210Z,7.00
2017-11-11T12:31:26.691Z,7.10
2017-11-11T12:33:54.754Z,7.10
2017-11-11T12:36:22.246Z,7.10
2017-11-11T12:38:50.543Z,7.20
2017-11-11T12:41:18.031Z,7.20
2017-11-11T12:43:46.282Z,7.20
2017-11-11T12:46:13.784Z,7.20
2017-11-11T12:48:42.060Z,7.10
2017-11-11T12:51:09.569Z,7.20
2017-11-11T12:53:37.053Z,7.20
2017-11-11T12:56:04.571Z,7.30
2017-11-11T12:58:32.052Z,7.30
2017-11-11T13:00:59.526Z,7.30
2017-11-11T13:03:27.008Z,7.30
2017-11-11T13:05:55.242Z,7.50
2017-11-11T13:08:22.756Z,7.40
2017-11-11T13:10:50.268Z,7.40
2017-11-11T13:13:17.765Z,7.50
2017-11-11T13:15:45.283Z,7.50
2017-11-11T13:18:12.819Z,7.50
2017-11-11T13:20:40.763Z,7.60
2017-11-11T13:23:08.224Z,7.80
2017-11-11T13:25:35.717Z,7.80
2017-11-11T13:28:03.189Z,7.90
2017-11-11T13:30:30.662Z,7.90
2017-11-11T13:32:58.915Z,8.00
2017-11-11T13:35:26.393Z,8.00
2017-11-11T13:37:54.769Z,8.00
2017-11-11T13:40:22.576Z,7.90
2017-11-11T13:42:50.110Z,8.00
2017-11-11T13:45:17.602Z,8.00
2017-11-11T13:47:45.573Z,8.00
2017-11-11T13:50:13.489Z,7.90
2017-11-11T13:52:41.717Z,8.00
2017-11-11T13:55:09.176Z,8.00
2017-11-11T13:57:37.442Z,8.10
2017-11-11T14:00:04.908Z,8.10
2017-11-11T14:02:32.386Z,8.10
2017-11-11T14:04:59.835Z,8.20
2017-11-11T14:07:27.590Z,8.10
2017-11-11T14:09:55.046Z,8.10
2017-11-11T14:12:22.554Z,8.00
2017-11-11T14:14:50.034Z,8.20
2017-11-11T14:17:17.506Z,8.20
2017-11-11T14:19:44.977Z,8.20
2017-11-11T14:22:12.454Z,8.20
2017-11-11T14:24:39.929Z,8.30
2017-11-11T14:27:07.406Z,8.30
2017-11-11T14:29:34.902Z,8.30
2017-11-11T14:32:02.383Z,8.30
2017-11-11T14:34:29.861Z,8.40
2017-11-11T14:36:58.158Z,8.40
2017-11-11T14:39:25.635Z,8.50
2017-11-11T14:41:53.890Z,8.30
2017-11-11T14:44:21.361Z,8.20
2017-11-11T14:46:48.845Z,8.40
2017-11-11T14:49:16.325Z,8.40
2017-11-11T14:51:43.809Z,8.30
2017-11-11T14:54:12.077Z,8.40
2017-11-11T14:56:40.306Z,8.50
2017-11-11T14:59:08.052Z,8.40
2017-11-11T15:01:35.514Z,8.50
2017-11-11T15:04:03.071Z,8.40
2017-11-11T15:06:30.568Z,8.50
2017-11-11T15:08:58.032Z,8.40
2017-11-11T15:11:25.756Z,8.40
2017-11-11T15:13:53.259Z,8.40
2017-11-11T15:16:20.857Z,8.40
2017-11-11T15:18:48.394Z,8.40
2017-11-11T15:21:16.002Z,8.50
2017-11-11T15:23:43.584Z,8.50
2017-11-11T15:26:11.081Z,8.40
2017-11-11T15:28:39.394Z,8.40
2017-11-11T15:31:06.891Z,8.40
2017-11-11T15:33:34.440Z,8.40
2017-11-11T15:36:01.935Z,8.50
2017-11-11T15:38:30.215Z,8.50
2017-11-11T15:40:58.489Z,8.50
2017-11-11T15:43:26.795Z,8.60
2017-11-11T15:45:54.843Z,8.50
2017-11-11T15:48:22.355Z,8.50
2017-11-11T15:50:49.957Z,8.50
2017-11-11T15:53:18.337Z,8.40
2017-11-11T15:55:45.891Z,8.40
2017-11-11T15:58:14.245Z,8.50
2017-11-11T16:00:41.886Z,7.00
2017-11-11T16:03:09.450Z,8.50
2017-11-11T16:05:36.960Z,8.50
2017-11-11T16:08:04.463Z,8.40
2017-11-11T16:10:32.115Z,8.50
2017-11-11T16:12:59.885Z,8.50
2017-11-11T16:15:28.357Z,8.50
2017-11-11T16:17:55.914Z,8.50
2017-11-11T16:20:23.467Z,8.50
2017-11-11T16:22:51.081Z,8.40
2017-11-11T16:25:19.380Z,8.40
2017-11-11T16:27:47.011Z,8.50
2017-11-11T16:30:15.296Z,8.40
2017-11-11T16:32:42.913Z,8.40
2017-11-11T16:35:10.400Z,8.40
2017-11-11T16:37:38.028Z,8.40
2017-11-11T16:40:05.527Z,8.40
2017-11-11T16:42:33.781Z,8.40
2017-11-11T16:45:01.254Z,8.40
2017-11-11T16:47:28.724Z,8.40
2017-11-11T16:49:56.970Z,7.90
2017-11-11T16:52:24.463Z,7.90
2017-11-11T16:54:51.922Z,7.70
2017-11-11T16:57:19.417Z,7.40
2017-11-11T16:59:46.902Z,7.30
2017-11-11T17:02:14.373Z,7.20
2017-11-11T17:04:41.870Z,7.10
2017-11-11T17:07:10.105Z,7.00
2017-11-11T17:09:37.593Z,7.00
2017-11-11T17:12:05.090Z,7.00
2017-11-11T17:14:32.595Z,7.00
2017-11-11T17:17:00.847Z,6.90
2017-11-11T17:19:28.334Z,6.90
2017-11-11T17:21:56.201Z,6.90
2017-11-11T17:24:23.704Z,6.90
2017-11-11T17:26:51.233Z,7.00
2017-11-11T17:29:18.731Z,7.10
2017-11-11T17:31:46.204Z,6.90
2017-11-11T17:34:13.947Z,6.90
2017-11-11T17:36:41.437Z,6.90
2017-11-11T17:39:09.695Z,6.80
2017-11-11T17:41:37.181Z,6.80
2017-11-11T17:44:04.650Z,6.70
2017-11-11T17:46:33.225Z,6.80
2017-11-11T17:49:00.709Z,6.80
2017-11-11T17:51:28.173Z,6.70
2017-11-11T17:53:55.672Z,6.70
2017-11-11T17:56:23.175Z,6.70
2017-11-11T17:58:50.693Z,6.90
2017-11-11T18:01:18.217Z,7.00
2017-11-11T18:03:45.688Z,7.10
2017-11-11T18:06:13.201Z,7.10
2017-11-11T18:08:40.726Z,7.00
2017-11-11T18:11:08.612Z,7.00
2017-11-11T18:13:36.100Z,6.80
2017-11-11T18:16:03.623Z,6.80
2017-11-11T18:18:31.868Z,6.60
2017-11-11T18:20:59.944Z,6.60
2017-11-11T18:23:27.489Z,6.60
2017-11-11T18:25:54.953Z,6.70
2017-11-11T18:28:22.858Z,6.90
2017-11-11T18:30:51.127Z,7.10
2017-11-11T18:33:18.603Z,7.10
2017-11-11T18:35:46.081Z,7.10
2017-11-11T18:38:13.566Z,7.00
2017-11-11T18:40:41.072Z,7.00
2017-11-11T18:43:09.365Z,7.00
2017-11-11T18:45:36.858Z,7.00
2017-11-11T18:48:04.339Z,6.90
2017-11-11T18:50:31.810Z,6.90
2017-11-11T18:52:59.306Z,6.90
2017-11-11T18:55:26.789Z,6.70
2017-11-11T18:57:54.293Z,6.90
2017-11-11T19:00:21.798Z,6.80
2017-11-11T19:02:49.324Z,6.90
2017-11-11T19:05:16.831Z,7.00
2017-11-11T19:07:44.343Z,6.80
2017-11-11T19:10:11.853Z,6.90
2017-11-11T19:12:39.320Z,6.90
2017-11-11T19:15:07.208Z,6.80
2017-11-11T19:17:35.630Z,6.70
2017-11-11T19:20:03.369Z,6.70
2017-11-11T19:22:30.875Z,6.80
2017-11-11T19:24:58.340Z,7.00
2017-11-11T19:27:25.827Z,6.90
2017-11-11T19:29:53.332Z,6.80
2017-11-11T19:32:20.833Z,6.90
2017-11-11T19:34:48.388Z,6.90
2017-11-11T19:37:16.690Z,6.70
2017-11-11T19:39:44.231Z,6.70
2017-11-11T19:42:11.763Z,6.70
2017-11-11T19:44:39.282Z,6.80
2017-11-11T19:47:06.799Z,6.80
2017-11-11T19:49:34.676Z,6.90
2017-11-11T19:52:02.188Z,7.10
2017-11-11T19:54:29.680Z,6.90
2017-11-11T19:56:57.167Z,6.80
2017-11-11T19:59:25.800Z,6.80
2017-11-11T20:01:53.355Z,6.90
2017-11-11T20:04:24.682Z,6.90
2017-11-11T20:06:52.466Z,6.90
2017-11-11T20:09:19.972Z,7.00
2017-11-11T20:11:47.597Z,3.80
2017-11-11T20:14:21.456Z,6.90
2017-11-11T20:16:49.000Z,7.00
2017-11-11T20:19:16.958Z,6.80
2017-11-11T20:21:44.626Z,6.90
2017-11-11T20:24:12.140Z,6.80
2017-11-11T20:26:39.777Z,6.70
2017-11-11T20:29:07.441Z,6.70
2017-11-11T20:31:36.552Z,6.70
2017-11-11T20:34:05.894Z,6.70
2017-11-11T20:36:34.755Z,6.40
2017-11-11T20:39:02.485Z,6.40
2017-11-11T20:41:31.301Z,6.40
2017-11-11T20:43:59.053Z,6.30
2017-11-11T20:46:26.914Z,6.50
2017-11-11T20:48:54.635Z,6.30
2017-11-11T20:51:22.241Z,6.30
2017-11-11T20:53:49.792Z,6.30
2017-11-11T20:56:17.410Z,6.30
2017-11-11T20:58:46.353Z,6.20
2017-11-11T21:01:15.136Z,6.20
2017-11-11T21:03:44.991Z,6.10
2017-11-11T21:06:20.059Z,6.20
2017-11-11T21:08:47.863Z,6.20
2017-11-11T21:11:15.983Z,6.20
2017-11-11T21:13:44.754Z,6.00
2017-11-11T21:16:13.404Z,6.00
2017-11-11T21:18:43.981Z,5.90
2017-11-11T21:21:14.248Z,5.90
2017-11-11T21:23:43.160Z,6.00
2017-11-11T21:26:12.301Z,5.80
2017-11-11T21:28:41.116Z,5.80
2017-11-11T21:31:10.180Z,5.80
2017-11-11T21:33:38.702Z,5.90
2017-11-11T21:36:07.244Z,5.90
2017-11-11T21:38:35.095Z,6.00
2017-11-11T21:41:02.749Z,6.00
2017-11-11T21:43:30.518Z,5.90
2017-11-11T21:45:59.517Z,5.60
2017-11-11T21:48:27.332Z,5.70
2017-11-11T21:50:55.337Z,5.50
2017-11-11T21:53:23.284Z,5.40
2017-11-11T21:55:52.608Z,5.50
2017-11-11T21:58:20.319Z,5.60
2017-11-11T22:00:48.545Z,5.70
2017-11-11T22:03:16.415Z,5.80
2017-11-11T22:05:44.317Z,5.80
2017-11-11T22:08:12.232Z,5.90
2017-11-11T22:10:39.872Z,5.90
2017-11-11T22:13:07.725Z,5.90
2017-11-11T22:15:35.348Z,5.90
2017-11-11T22:18:02.861Z,5.90
2017-11-11T22:20:30.915Z,5.80
2017-11-11T22:22:58.511Z,5.70
2017-11-11T22:25:26.254Z,5.90
2017-11-11T22:27:53.773Z,6.00
2017-11-11T22:30:21.497Z,6.10
2017-11-11T22:32:49.201Z,5.70
2017-11-11T22:35:16.768Z,5.40
2017-11-11T22:37:45.272Z,5.50
2017-11-11T22:40:12.824Z,5.40
2017-11-11T22:42:40.728Z,5.40
2017-11-11T22:45:09.089Z,5.40
2017-11-11T22:47:36.725Z,5.40
2017-11-11T22:50:04.253Z,5.30
2017-11-11T22:52:32.733Z,5.00
2017-11-11T22:55:00.310Z,4.90
2017-11-11T22:57:28.769Z,5.00
2017-11-11T22:59:57.325Z,5.10
2017-11-11T23:02:25.095Z,5.00
2017-11-11T23:04:53.431Z,5.10
2017-11-11T23:07:20.958Z,5.10
2017-11-11T23:09:48.571Z,5.10
2017-11-11T23:12:16.215Z,5.20
2017-11-11T23:14:43.722Z,5.20
2017-11-11T23:17:12.325Z,5.20
2017-11-11T23:19:40.283Z,5.10
2017-11-11T23:22:08.233Z,5.10
2017-11-11T23:24:36.573Z,5.00
2017-11-11T23:27:04.234Z,5.00
2017-11-11T23:29:31.741Z,5.00
2017-11-11T23:31:59.597Z,5.10
2017-11-11T23:34:27.551Z,5.20
2017-11-11T23:36:55.123Z,5.20
2017-11-11T23:39:22.682Z,4.70
2017-11-11T23:41:51.845Z,5.30
2017-11-11T23:44:19.358Z,5.30
2017-11-11T23:46:46.900Z,5.10
2017-11-11T23:49:14.577Z,5.00
2017-11-11T23:51:42.229Z,5.10
2017-11-11T23:54:09.696Z,5.00
2017-11-11T23:56:37.167Z,5.00
2017-11-11T23:59:04.641Z,5.10
